ADDS METAR Data

Data at: 0527 UTC 20 Sep 2017

METAR for:KPHX (Phoenix/Sky Harbor, AZ, US)
Text:KPHX 200451Z 23004KT 10SM CLR 29/M01 A2976 RMK AO2 SLP058 T02891011
Temperature: 28.9°C ( 84°F)
Dewpoint: -1.1°C ( 30°F) [RH = 14%]
Pressure (altimeter):29.76 inches Hg (1007.9 mb) [Sea level pressure: 1005.8 mb]
Winds:from the SW (230 degrees) at 5 MPH (4 knots; 2.1 m/s)
Visibility:10 or more sm (16+ km)
Ceiling:at least 12,000 feet AGL
Clouds:sky clear below 12,000 feet AGL